Time;durP1;ratioP1;P1;durP2;ratioP2;P2;SDS_P1;SDS_P2;PMS_P1;PMS_P2;Temp;Humidity;BMP_temperature;BMP_pressure;BME280_temperature;BME280_humidity;BME280_pressure;Samples;Min_cycle;Max_cycle;Signal;HPM_P1;HPM_P2
2021/05/16 00:00:17;;;;;;;1.00;1.00;;;11.50;99.90;;;;;;4938062;28;20464;-76
2021/05/16 00:02:43;;;;;;;3.65;1.10;;;11.50;99.90;;;;;;4949900;28;20390;-78
2021/05/16 00:05:10;;;;;;;1.27;1.17;;;11.70;99.90;;;;;;4936362;29;20471;-79
2021/05/16 00:07:35;;;;;;;1.13;1.10;;;11.60;99.90;;;;;;4934490;29;20402;-78
2021/05/16 00:10:01;;;;;;;1.10;1.10;;;11.60;99.90;;;;;;4890799;29;20397;-81
2021/05/16 00:12:27;;;;;;;1.35;1.25;;;11.60;99.90;;;;;;4922332;29;20398;-83
2021/05/16 00:14:53;;;;;;;1.43;1.30;;;11.60;99.90;;;;;;4934141;29;20410;-83
2021/05/16 00:17:18;;;;;;;1.40;1.30;;;11.70;99.90;;;;;;4949304;29;20481;-79
2021/05/16 00:19:45;;;;;;;1.60;1.50;;;11.70;99.90;;;;;;4903793;28;20405;-77
2021/05/16 00:22:11;;;;;;;1.50;1.40;;;11.60;99.90;;;;;;4899413;29;20408;-85
2021/05/16 00:24:36;;;;;;;2.60;1.60;;;11.70;99.90;;;;;;4899674;29;20775;-74
2021/05/16 00:27:02;;;;;;;1.40;1.30;;;11.60;99.90;;;;;;4913411;29;20469;-75
2021/05/16 00:29:28;;;;;;;1.57;1.47;;;11.50;99.90;;;;;;4923404;29;20410;-79
2021/05/16 00:31:53;;;;;;;1.23;1.23;;;11.50;99.90;;;;;;4917992;29;20410;-84
2021/05/16 00:34:19;;;;;;;1.37;1.17;;;11.30;99.90;;;;;;4898700;29;20411;-81
2021/05/16 00:36:45;;;;;;;1.88;1.70;;;11.40;99.90;;;;;;4908367;29;20485;-71
2021/05/16 00:39:10;;;;;;;1.70;1.60;;;11.40;99.90;;;;;;4917044;29;20417;-75
2021/05/16 00:41:36;;;;;;;1.83;1.73;;;11.30;99.90;;;;;;4913899;29;20420;-77
2021/05/16 00:44:02;;;;;;;1.60;1.50;;;11.30;99.90;;;;;;4916029;29;20744;-73
2021/05/16 00:46:27;;;;;;;2.13;1.77;;;11.20;99.90;;;;;;4931847;29;20402;-76
2021/05/16 00:48:53;;;;;;;1.35;1.30;;;11.30;99.90;;;;;;4932987;29;20452;-79
2021/05/16 00:51:19;;;;;;;1.45;1.35;;;11.30;99.90;;;;;;4933100;29;20492;-77
2021/05/16 00:53:45;;;;;;;1.50;1.40;;;11.30;99.90;;;;;;4919370;29;20430;-74
2021/05/16 00:56:11;;;;;;;1.58;1.48;;;11.30;99.90;;;;;;4929158;28;20771;-77
2021/05/16 00:58:37;;;;;;;1.77;1.52;;;11.30;99.90;;;;;;4915875;29;20478;-78
2021/05/16 01:01:07;;;;;;;1.13;1.03;;;11.40;99.90;;;;;;4922412;29;20394;-77
2021/05/16 01:03:32;;;;;;;1.50;1.40;;;11.40;99.90;;;;;;4887269;29;20441;-83
2021/05/16 01:05:58;;;;;;;1.60;1.50;;;11.40;99.90;;;;;;4932637;29;20398;-81
2021/05/16 01:08:30;;;;;;;1.55;1.45;;;11.50;99.90;;;;;;4915493;29;20438;-82
2021/05/16 01:10:56;;;;;;;1.77;1.30;;;11.50;99.90;;;;;;4910995;29;20433;-81
2021/05/16 01:13:24;;;;;;;1.20;1.10;;;11.50;99.90;;;;;;4906054;29;20396;-79
2021/05/16 01:15:51;;;;;;;2.17;1.30;;;11.50;99.90;;;;;;4910706;29;20455;-80
2021/05/16 01:18:16;;;;;;;1.50;1.40;;;11.50;99.90;;;;;;4930254;29;20483;-78
2021/05/16 01:20:44;;;;;;;1.85;1.33;;;11.50;99.90;;;;;;4933389;29;20401;-78
2021/05/16 01:23:17;;;;;;;1.00;1.00;;;11.50;99.90;;;;;;4934148;29;20406;-78
2021/05/16 01:25:49;;;;;;;1.25;1.15;;;11.50;99.90;;;;;;4934645;29;20409;-79
2021/05/16 01:28:16;;;;;;;1.40;1.27;;;11.50;99.90;;;;;;4901422;29;20406;-78
2021/05/16 01:30:42;;;;;;;1.08;1.08;;;11.50;99.90;;;;;;4899604;29;20393;-74
2021/05/16 01:33:08;;;;;;;1.30;1.20;;;11.50;99.90;;;;;;4931493;28;20407;-78
2021/05/16 01:35:34;;;;;;;1.15;1.10;;;11.50;99.90;;;;;;4910023;29;20402;-78
2021/05/16 01:38:01;;;;;;;2.25;1.27;;;11.50;99.90;;;;;;4916023;29;20458;-85
2021/05/16 01:40:27;;;;;;;1.40;1.30;;;11.50;99.90;;;;;;4924956;29;20478;-81
2021/05/16 01:42:58;;;;;;;1.63;1.40;;;11.50;99.90;;;;;;4897199;29;20410;-77
2021/05/16 01:45:26;;;;;;;1.45;1.35;;;11.50;99.90;;;;;;4891925;29;20412;-79
2021/05/16 01:47:52;;;;;;;1.08;0.98;;;11.50;99.90;;;;;;4916184;29;20410;-79
2021/05/16 01:50:18;;;;;;;4.60;1.30;;;11.50;99.90;;;;;;4931881;29;20433;-75
2021/05/16 01:52:45;;;;;;;1.63;1.27;;;11.50;99.90;;;;;;4917284;29;20414;-76
2021/05/16 01:55:14;;;;;;;1.30;1.20;;;11.50;99.90;;;;;;4932159;29;20484;-77
2021/05/16 01:57:39;;;;;;;1.42;1.25;;;11.60;99.90;;;;;;4900132;29;20403;-80
2021/05/16 02:00:06;;;;;;;2.50;1.27;;;11.50;99.90;;;;;;4941170;29;20983;-76
2021/05/16 02:02:42;;;;;;;1.05;1.05;;;11.50;99.90;;;;;;4934804;29;21058;-76
2021/05/16 02:05:09;;;;;;;1.48;1.38;;;11.50;99.90;;;;;;4928839;29;20421;-84
2021/05/16 02:07:35;;;;;;;1.20;1.20;;;11.40;99.90;;;;;;4919864;29;20950;-81
2021/05/16 02:10:02;;;;;;;1.40;1.30;;;11.40;99.90;;;;;;4875440;29;20488;-79
2021/05/16 02:12:29;;;;;;;2.00;1.33;;;11.40;99.90;;;;;;4916372;29;20503;-77
2021/05/16 02:14:55;;;;;;;5.10;1.30;;;11.30;99.90;;;;;;4910990;29;20433;-74
2021/05/16 02:17:21;;;;;;;1.73;1.40;;;11.30;99.90;;;;;;4915607;29;20933;-77
2021/05/16 02:19:47;;;;;;;1.42;1.30;;;11.40;99.90;;;;;;4905270;29;20409;-76
2021/05/16 02:22:14;;;;;;;1.17;1.13;;;11.30;99.90;;;;;;4899438;29;20479;-79
2021/05/16 02:24:43;;;;;;;1.00;1.00;;;11.30;99.90;;;;;;4899521;29;20410;-74
2021/05/16 02:27:16;;;;;;;1.02;1.00;;;11.30;99.90;;;;;;4888268;29;20431;-81
2021/05/16 02:29:52;;;;;;;1.23;1.15;;;11.30;99.90;;;;;;4916914;29;20426;-79
2021/05/16 02:32:19;;;;;;;1.30;1.20;;;11.30;99.90;;;;;;4929637;29;20428;-81
2021/05/16 02:34:46;;;;;;;1.20;1.10;;;11.30;99.90;;;;;;4881529;29;20398;-73
2021/05/16 02:37:18;;;;;;;1.00;1.00;;;11.20;99.90;;;;;;4882790;29;20415;-77
2021/05/16 02:39:44;;;;;;;1.05;1.05;;;11.20;99.90;;;;;;4936724;29;20979;-84
2021/05/16 02:42:10;;;;;;;1.40;1.30;;;11.20;99.90;;;;;;4874497;29;20427;-75
2021/05/16 02:45:03;;;;;;;1.25;1.17;;;11.20;99.90;;;;;;4882395;29;20406;-72
2021/05/16 02:47:29;;;;;;;1.27;1.17;;;11.10;99.90;;;;;;4920634;28;20391;-80
2021/05/16 02:49:55;;;;;;;1.20;1.10;;;11.10;99.90;;;;;;4905019;29;20405;-81
2021/05/16 02:52:21;;;;;;;1.30;1.20;;;11.00;99.90;;;;;;4931513;29;20569;-78
2021/05/16 02:54:47;;;;;;;1.10;1.10;;;10.90;99.90;;;;;;4918036;29;20465;-80
2021/05/16 02:57:13;;;;;;;1.27;1.10;;;10.80;99.90;;;;;;4916483;29;20955;-78
2021/05/16 02:59:40;;;;;;;1.20;1.10;;;10.90;99.90;;;;;;4907771;29;20920;-75
2021/05/16 03:02:07;;;;;;;1.10;1.10;;;10.70;99.90;;;;;;4898164;29;20400;-79
2021/05/16 03:04:32;;;;;;;1.05;0.95;;;10.60;99.90;;;;;;4888553;29;20416;-82
2021/05/16 03:06:58;;;;;;;1.00;1.00;;;10.60;99.90;;;;;;4882231;29;20414;-81
2021/05/16 03:09:26;;;;;;;1.20;1.20;;;10.60;99.90;;;;;;4919798;29;20750;-77
2021/05/16 03:11:52;;;;;;;1.20;1.10;;;10.50;99.90;;;;;;4932868;29;20433;-76
2021/05/16 03:14:18;;;;;;;1.00;1.00;;;10.50;99.90;;;;;;4932335;29;20406;-76
2021/05/16 03:16:43;;;;;;;1.00;1.00;;;10.50;99.90;;;;;;4931503;29;20405;-79
2021/05/16 03:19:09;;;;;;;0.80;0.80;;;10.40;99.90;;;;;;4902460;29;20398;-80
2021/05/16 03:21:43;;;;;;;1.20;1.05;;;10.40;99.90;;;;;;4939420;29;20415;-81
2021/05/16 03:24:09;;;;;;;1.25;1.05;;;10.30;99.90;;;;;;4910597;29;20480;-87
2021/05/16 03:26:36;;;;;;;0.90;0.90;;;10.30;99.90;;;;;;4923297;29;20400;-77
2021/05/16 03:29:04;;;;;;;1.10;1.00;;;10.30;99.90;;;;;;4917628;29;20446;-80
2021/05/16 03:31:29;;;;;;;0.97;0.97;;;10.30;99.90;;;;;;4910351;29;20433;-78
2021/05/16 03:33:55;;;;;;;1.00;1.00;;;10.40;99.90;;;;;;4917332;29;20407;-80
2021/05/16 03:36:21;;;;;;;1.33;1.17;;;10.30;99.90;;;;;;4931366;29;20460;-77
2021/05/16 03:38:46;;;;;;;0.90;0.90;;;10.20;99.90;;;;;;4932937;29;20925;-80
2021/05/16 03:41:12;;;;;;;1.13;1.10;;;10.20;99.90;;;;;;4921613;29;20403;-78
2021/05/16 03:43:38;;;;;;;1.00;1.00;;;10.20;99.90;;;;;;4932693;29;20489;-78
2021/05/16 03:46:03;;;;;;;0.80;0.80;;;10.20;99.90;;;;;;4926804;29;20517;-77
2021/05/16 03:48:29;;;;;;;1.50;1.03;;;10.20;99.90;;;;;;4922766;29;20400;-75
2021/05/16 03:50:55;;;;;;;3.40;0.98;;;10.20;99.90;;;;;;4900697;29;20426;-76
2021/05/16 03:53:20;;;;;;;3.80;0.93;;;10.20;99.90;;;;;;4935469;29;20931;-80
2021/05/16 03:55:46;;;;;;;0.90;0.90;;;10.20;99.90;;;;;;4912188;29;20497;-73
2021/05/16 03:58:12;;;;;;;0.90;0.90;;;10.10;99.90;;;;;;4931885;29;20404;-73
2021/05/16 04:00:37;;;;;;;1.00;1.00;;;10.10;99.90;;;;;;4937923;29;20405;-79
2021/05/16 04:03:03;;;;;;;1.00;1.00;;;10.20;99.90;;;;;;4944621;28;20449;-80
2021/05/16 04:05:29;;;;;;;1.00;1.00;;;10.10;99.90;;;;;;4901900;29;20414;-83
2021/05/16 04:07:54;;;;;;;0.83;0.83;;;10.10;99.90;;;;;;4914109;29;20487;-82
2021/05/16 04:10:20;;;;;;;0.90;0.90;;;10.20;99.90;;;;;;4916821;29;20452;-75
2021/05/16 04:12:46;;;;;;;1.00;1.00;;;10.30;99.90;;;;;;4897632;29;20418;-77
2021/05/16 04:15:12;;;;;;;1.03;1.03;;;10.40;99.90;;;;;;4931418;29;21070;-78
2021/05/16 04:17:37;;;;;;;1.00;1.00;;;10.40;99.90;;;;;;4890516;29;20424;-74
2021/05/16 04:20:04;;;;;;;1.00;1.00;;;10.50;99.90;;;;;;4897182;29;20394;-75
2021/05/16 04:22:29;;;;;;;0.90;0.90;;;10.60;99.90;;;;;;4918004;29;20908;-75
2021/05/16 04:24:55;;;;;;;0.90;0.90;;;10.60;99.90;;;;;;4933771;29;20386;-78
2021/05/16 04:27:21;;;;;;;1.10;1.00;;;10.70;99.90;;;;;;4928339;29;20398;-74
2021/05/16 04:29:46;;;;;;;1.10;1.00;;;10.70;99.90;;;;;;4917957;29;20434;-79
2021/05/16 04:32:12;;;;;;;1.08;1.08;;;10.70;99.90;;;;;;4919132;29;20935;-73
2021/05/16 04:34:38;;;;;;;0.90;0.90;;;10.70;99.90;;;;;;4930967;29;20952;-71
2021/05/16 04:37:03;;;;;;;1.00;1.00;;;10.80;99.90;;;;;;4933481;29;20807;-75
2021/05/16 04:39:29;;;;;;;0.90;0.90;;;10.80;99.90;;;;;;4932170;29;20550;-75
2021/05/16 04:41:55;;;;;;;1.08;1.08;;;10.80;99.90;;;;;;4911179;29;20406;-76
2021/05/16 04:44:20;;;;;;;0.90;0.90;;;10.80;99.90;;;;;;4905424;29;20833;-75
2021/05/16 04:46:46;;;;;;;0.82;0.82;;;10.90;99.90;;;;;;4888804;29;20995;-79
2021/05/16 04:49:12;;;;;;;1.10;1.00;;;11.00;99.90;;;;;;4918708;29;20424;-74
2021/05/16 04:51:38;;;;;;;1.02;1.02;;;11.00;99.90;;;;;;4915951;29;20425;-82
2021/05/16 04:54:04;;;;;;;1.00;1.00;;;11.10;99.90;;;;;;4899529;29;20903;-75
2021/05/16 04:56:30;;;;;;;1.05;1.05;;;11.20;99.90;;;;;;4931064;29;20403;-77
2021/05/16 04:58:55;;;;;;;1.20;1.00;;;11.30;99.90;;;;;;4932112;29;20398;-73
2021/05/16 05:01:24;;;;;;;1.13;1.02;;;11.50;99.90;;;;;;4939661;29;20501;-77
2021/05/16 05:03:50;;;;;;;0.90;0.90;;;11.50;99.90;;;;;;4916947;29;20422;-76
2021/05/16 05:06:16;;;;;;;0.90;0.90;;;11.50;99.90;;;;;;4893084;29;20398;-74
2021/05/16 05:08:41;;;;;;;0.90;0.90;;;11.70;99.90;;;;;;4892880;29;20525;-81
2021/05/16 05:11:07;;;;;;;1.00;1.00;;;11.70;99.90;;;;;;4892645;29;20419;-81
2021/05/16 05:13:33;;;;;;;0.90;0.90;;;11.80;99.90;;;;;;4932241;29;20406;-83
2021/05/16 05:15:58;;;;;;;0.90;0.90;;;11.90;99.90;;;;;;4915077;29;20407;-78
2021/05/16 05:18:24;;;;;;;0.90;0.90;;;11.90;99.90;;;;;;4899593;29;20501;-76
2021/05/16 05:20:51;;;;;;;0.90;0.90;;;12.00;99.90;;;;;;4937877;29;20414;-83
2021/05/16 05:23:17;;;;;;;2.40;1.20;;;12.10;99.90;;;;;;4913390;29;20400;-82
2021/05/16 05:25:42;;;;;;;0.80;0.80;;;12.30;99.90;;;;;;4933716;29;20473;-74
2021/05/16 05:28:08;;;;;;;0.83;0.83;;;12.40;99.90;;;;;;4899883;29;20410;-80
2021/05/16 05:30:34;;;;;;;1.27;0.90;;;12.60;99.90;;;;;;4921337;29;20934;-77
2021/05/16 05:32:59;;;;;;;0.80;0.80;;;12.70;99.90;;;;;;4895669;29;20422;-86
2021/05/16 05:35:25;;;;;;;1.15;0.90;;;12.80;99.90;;;;;;4905703;28;20746;-84
2021/05/16 05:37:51;;;;;;;0.90;0.90;;;12.90;99.90;;;;;;4908543;29;20406;-80
2021/05/16 05:40:16;;;;;;;0.70;0.70;;;12.90;99.90;;;;;;4918400;28;20453;-81
2021/05/16 05:42:42;;;;;;;0.60;0.60;;;12.80;99.90;;;;;;4932220;29;20900;-79
2021/05/16 05:45:08;;;;;;;0.73;0.73;;;12.80;99.90;;;;;;4910335;29;20398;-77
2021/05/16 05:47:35;;;;;;;0.75;0.75;;;12.80;99.90;;;;;;4930757;29;20402;-78
2021/05/16 05:50:00;;;;;;;0.80;0.80;;;12.90;99.90;;;;;;4931073;29;20401;-78
2021/05/16 05:52:26;;;;;;;0.70;0.70;;;13.00;99.90;;;;;;4914174;29;20420;-77
2021/05/16 05:54:52;;;;;;;0.67;0.67;;;13.20;99.90;;;;;;4891302;29;20446;-77
2021/05/16 05:57:17;;;;;;;0.60;0.60;;;13.40;99.90;;;;;;4891700;29;20443;-80
2021/05/16 05:59:43;;;;;;;0.60;0.60;;;13.60;99.90;;;;;;4914567;28;20489;-84
2021/05/16 06:02:09;;;;;;;0.77;0.77;;;13.70;99.90;;;;;;4913278;29;20493;-78
2021/05/16 06:04:34;;;;;;;0.70;0.70;;;13.90;99.90;;;;;;4910139;29;20936;-82
2021/05/16 06:07:00;;;;;;;0.70;0.70;;;14.00;99.90;;;;;;4915517;29;20493;-78
2021/05/16 06:09:26;;;;;;;0.70;0.70;;;14.00;99.90;;;;;;4929212;29;20900;-85
2021/05/16 06:11:52;;;;;;;0.67;0.67;;;14.10;99.90;;;;;;4898346;29;20424;-82
2021/05/16 06:14:17;;;;;;;1.05;0.90;;;14.10;99.90;;;;;;4931412;28;20390;-80
2021/05/16 06:16:43;;;;;;;0.60;0.60;;;14.00;99.90;;;;;;4913962;29;20402;-80
2021/05/16 06:19:09;;;;;;;0.73;0.73;;;14.00;99.90;;;;;;4931047;29;20406;-81
2021/05/16 06:21:34;;;;;;;1.10;0.80;;;13.90;99.90;;;;;;4898169;29;20418;-82
2021/05/16 06:24:06;;;;;;;0.70;0.70;;;13.90;99.90;;;;;;4899333;29;20410;-79
2021/05/16 06:26:33;;;;;;;0.60;0.60;;;13.80;99.90;;;;;;4928126;29;20408;-83
2021/05/16 06:28:59;;;;;;;0.80;0.80;;;13.90;99.90;;;;;;4905366;29;20413;-80
2021/05/16 06:31:25;;;;;;;0.80;0.80;;;13.90;99.90;;;;;;4908248;29;20424;-79
2021/05/16 06:33:51;;;;;;;0.60;0.60;;;13.80;99.90;;;;;;4906876;29;20405;-83
2021/05/16 06:36:17;;;;;;;0.60;0.60;;;13.80;99.90;;;;;;4894756;29;20393;-82
2021/05/16 06:38:42;;;;;;;0.80;0.80;;;13.80;99.90;;;;;;4914111;29;20493;-87
2021/05/16 06:41:08;;;;;;;0.70;0.70;;;13.80;99.90;;;;;;4888579;29;20467;-81
2021/05/16 06:43:33;;;;;;;0.80;0.80;;;13.70;99.90;;;;;;4917807;29;20422;-89
2021/05/16 06:45:59;;;;;;;1.00;0.73;;;13.70;99.90;;;;;;4887908;29;20416;-84
2021/05/16 06:48:26;;;;;;;0.52;0.52;;;13.60;99.90;;;;;;4914160;29;20406;-89
2021/05/16 06:50:52;;;;;;;0.68;0.68;;;13.60;99.90;;;;;;4900382;29;20695;-80
2021/05/16 06:53:18;;;;;;;1.17;0.90;;;13.60;99.90;;;;;;4930230;28;20404;-80
2021/05/16 06:55:44;;;;;;;0.60;0.60;;;13.70;99.90;;;;;;4914385;29;20405;-85
2021/05/16 06:58:09;;;;;;;0.65;0.65;;;13.80;99.90;;;;;;4907211;28;20510;-81
2021/05/16 07:00:35;;;;;;;0.77;0.77;;;13.80;99.90;;;;;;4914453;29;20403;-90
2021/05/16 07:03:01;;;;;;;0.60;0.60;;;13.90;99.90;;;;;;4920189;28;20421;-81
2021/05/16 07:05:26;;;;;;;0.60;0.60;;;13.90;99.90;;;;;;4903778;29;20403;-83
2021/05/16 07:07:52;;;;;;;0.70;0.70;;;14.10;99.90;;;;;;4896456;29;20414;-82
2021/05/16 07:10:18;;;;;;;0.70;0.70;;;14.40;99.90;;;;;;4918886;29;20875;-81
2021/05/16 07:12:43;;;;;;;0.70;0.70;;;14.70;99.90;;;;;;4899580;28;20414;-84
2021/05/16 07:15:13;;;;;;;0.70;0.70;;;14.90;99.90;;;;;;4906902;29;20402;-84
2021/05/16 07:17:40;;;;;;;0.77;0.77;;;15.00;99.90;;;;;;4942363;29;20380;-79
2021/05/16 07:20:06;;;;;;;1.00;1.00;;;15.00;99.90;;;;;;4918432;29;20481;-80
2021/05/16 07:22:31;;;;;;;0.70;0.70;;;15.00;99.90;;;;;;4913049;29;20484;-81
2021/05/16 07:24:57;;;;;;;0.80;0.80;;;14.90;99.90;;;;;;4898844;29;20555;-77
2021/05/16 07:27:23;;;;;;;0.60;0.60;;;14.90;99.90;;;;;;4903467;29;20419;-82
2021/05/16 07:29:49;;;;;;;0.73;0.73;;;15.10;99.90;;;;;;4902601;29;20402;-79
2021/05/16 07:32:15;;;;;;;0.57;0.57;;;15.30;99.90;;;;;;4901395;29;20414;-76
2021/05/16 07:34:40;;;;;;;0.70;0.70;;;15.50;99.90;;;;;;4932803;29;20445;-79
2021/05/16 07:37:06;;;;;;;0.63;0.63;;;15.60;99.90;;;;;;4930518;29;20419;-83
2021/05/16 07:39:32;;;;;;;0.60;0.60;;;15.60;99.90;;;;;;4916758;29;21124;-82
2021/05/16 07:41:57;;;;;;;0.70;0.70;;;15.50;99.90;;;;;;4917408;29;20418;-79
2021/05/16 07:44:23;;;;;;;0.60;0.60;;;15.60;99.90;;;;;;4914752;29;20939;-77
2021/05/16 07:46:49;;;;;;;0.70;0.70;;;15.60;99.90;;;;;;4899600;29;20421;-80
2021/05/16 07:49:14;;;;;;;0.80;0.80;;;15.70;99.90;;;;;;4899521;29;20430;-78
2021/05/16 07:51:41;;;;;;;1.23;0.60;;;15.80;99.90;;;;;;4896094;29;20955;-81
2021/05/16 07:54:07;;;;;;;0.68;0.68;;;16.10;99.90;;;;;;4902530;29;21002;-79
2021/05/16 07:56:33;;;;;;;0.50;0.50;;;16.20;99.90;;;;;;4902025;29;20405;-83
2021/05/16 07:58:59;;;;;;;1.90;0.77;;;16.30;99.90;;;;;;4936869;28;20760;-88
2021/05/16 08:01:25;;;;;;;0.80;0.80;;;16.20;99.90;;;;;;4901373;29;20416;-88
2021/05/16 08:03:50;;;;;;;0.52;0.52;;;16.30;99.90;;;;;;4909788;29;22026;-87
2021/05/16 08:06:16;;;;;;;1.00;0.90;;;16.30;99.90;;;;;;4919058;29;20397;-80
2021/05/16 08:08:42;;;;;;;0.70;0.70;;;16.40;99.90;;;;;;4905801;28;20409;-85
2021/05/16 08:11:08;;;;;;;0.67;0.67;;;16.40;99.90;;;;;;4926724;28;20415;-84
2021/05/16 08:13:34;;;;;;;0.70;0.65;;;16.50;99.90;;;;;;4900875;29;20464;-80
2021/05/16 08:16:00;;;;;;;0.80;0.80;;;16.40;99.90;;;;;;4917666;29;20390;-77
2021/05/16 08:18:25;;;;;;;1.33;1.23;;;16.40;99.90;;;;;;4901204;29;20410;-80
2021/05/16 08:20:51;;;;;;;0.68;0.68;;;16.60;99.90;;;;;;4920188;28;20500;-75
2021/05/16 08:23:17;;;;;;;1.27;1.17;;;16.60;99.90;;;;;;4903196;28;20381;-75
2021/05/16 08:25:42;;;;;;;1.13;1.10;;;16.60;99.90;;;;;;4924563;29;20480;-76
2021/05/16 08:28:09;;;;;;;0.80;0.80;;;16.80;99.90;;;;;;4934133;29;20410;-78
2021/05/16 08:30:35;;;;;;;0.73;0.73;;;16.90;99.90;;;;;;4908451;29;20487;-78
2021/05/16 08:33:01;;;;;;;1.10;1.00;;;16.90;99.90;;;;;;4896517;29;20414;-79
2021/05/16 08:35:27;;;;;;;0.50;0.50;;;17.00;99.90;;;;;;4910418;29;20417;-77
2021/05/16 08:37:52;;;;;;;0.68;0.68;;;17.20;99.90;;;;;;4928928;29;20908;-78
2021/05/16 08:40:18;;;;;;;0.60;0.60;;;17.20;99.90;;;;;;4912616;29;20485;-76
2021/05/16 08:42:44;;;;;;;0.80;0.80;;;17.10;99.90;;;;;;4931950;29;20413;-74
2021/05/16 08:45:12;;;;;;;2.35;0.75;;;17.10;99.90;;;;;;4934621;29;20398;-79
2021/05/16 08:47:39;;;;;;;0.70;0.70;;;16.80;99.90;;;;;;4920337;29;20400;-86
2021/05/16 08:50:06;;;;;;;2.08;1.60;;;16.70;99.90;;;;;;4928257;29;20413;-85
2021/05/16 08:52:32;;;;;;;3.00;0.77;;;16.50;99.90;;;;;;4929351;29;20410;-81
2021/05/16 08:54:57;;;;;;;0.60;0.60;;;16.30;99.90;;;;;;4899414;29;21389;-79
2021/05/16 08:57:23;;;;;;;0.57;0.57;;;16.30;99.90;;;;;;4910753;29;20918;-83
2021/05/16 09:00:09;;;;;;;0.60;0.60;;;16.20;99.90;;;;;;4916622;29;20411;-77
2021/05/16 09:03:01;;;;;;;0.65;0.65;;;16.20;99.90;;;;;;4911861;29;20490;-78
2021/05/16 09:05:32;;;;;;;0.80;0.80;;;16.30;99.90;;;;;;4941702;29;20418;-79
2021/05/16 09:08:04;;;;;;;0.60;0.60;;;16.50;99.90;;;;;;4896776;29;20412;-77
2021/05/16 09:10:30;;;;;;;0.63;0.63;;;16.60;99.90;;;;;;4911549;29;21065;-77
2021/05/16 09:13:08;;;;;;;0.60;0.60;;;16.60;99.90;;;;;;4901123;29;20431;-78
2021/05/16 09:15:33;;;;;;;0.55;0.55;;;16.50;99.90;;;;;;4922361;29;20988;-81
2021/05/16 09:17:59;;;;;;;0.50;0.50;;;16.40;99.90;;;;;;4912775;29;20394;-79
2021/05/16 09:20:25;;;;;;;0.52;0.52;;;16.50;99.90;;;;;;4889866;29;20484;-83
2021/05/16 09:22:54;;;;;;;0.60;0.60;;;16.40;99.90;;;;;;4889139;29;20415;-80
2021/05/16 09:25:29;;;;;;;0.60;0.60;;;16.60;99.90;;;;;;4894022;29;20413;-83
2021/05/16 09:28:16;;;;;;;0.80;0.60;;;16.90;99.90;;;;;;4916887;29;20467;-78
2021/05/16 09:30:42;;;;;;;0.68;0.63;;;17.20;99.90;;;;;;4914977;29;20410;-76
2021/05/16 09:33:12;;;;;;;0.52;0.52;;;17.20;99.90;;;;;;4921683;29;20431;-81
2021/05/16 09:35:47;;;;;;;0.98;0.98;;;17.00;99.90;;;;;;4898658;29;20437;-81
2021/05/16 09:38:19;;;;;;;1.15;0.60;;;16.90;99.90;;;;;;4914453;29;20406;-78
2021/05/16 09:40:54;;;;;;;0.55;0.55;;;16.80;99.90;;;;;;4914146;29;20499;-86
2021/05/16 09:43:22;;;;;;;0.60;0.60;;;16.60;99.90;;;;;;4928082;29;20754;-83
2021/05/16 09:45:56;;;;;;;0.60;0.60;;;16.40;99.90;;;;;;4919485;29;20406;-80
2021/05/16 09:48:32;;;;;;;0.60;0.60;;;16.30;99.90;;;;;;4912229;29;20412;-86
2021/05/16 09:51:15;;;;;;;1.08;0.77;;;16.20;99.90;;;;;;4927476;29;20410;-82
2021/05/16 09:53:46;;;;;;;0.70;0.70;;;16.10;99.90;;;;;;4898017;29;20992;-85
2021/05/16 09:56:22;;;;;;;1.17;1.07;;;16.10;99.90;;;;;;4913354;28;20488;-82
2021/05/16 09:58:58;;;;;;;0.70;0.70;;;16.10;99.90;;;;;;4913995;29;20916;-82
2021/05/16 10:01:25;;;;;;;0.70;0.70;;;16.40;99.90;;;;;;4918674;28;20432;-81
2021/05/16 10:03:51;;;;;;;0.50;0.50;;;16.30;99.90;;;;;;4914518;29;20410;-79
2021/05/16 10:06:17;;;;;;;0.70;0.70;;;16.40;99.90;;;;;;4920050;29;20406;-80
2021/05/16 10:08:47;;;;;;;0.70;0.70;;;16.70;99.90;;;;;;4899130;29;20504;-80
2021/05/16 10:11:13;;;;;;;0.75;0.75;;;16.90;99.90;;;;;;4901207;29;20411;-88
2021/05/16 10:13:41;;;;;;;0.60;0.60;;;17.10;99.90;;;;;;4910275;29;20403;-79
2021/05/16 10:16:06;;;;;;;0.80;0.80;;;17.00;99.90;;;;;;4911828;29;20402;-76
2021/05/16 10:18:33;;;;;;;0.73;0.73;;;16.80;99.90;;;;;;4912344;29;20492;-77
2021/05/16 10:20:58;;;;;;;0.70;0.70;;;16.90;99.90;;;;;;4904722;29;20430;-81
2021/05/16 10:23:31;;;;;;;0.77;0.77;;;16.90;99.90;;;;;;4930171;29;20411;-79
2021/05/16 10:26:13;;;;;;;1.00;0.80;;;17.10;99.90;;;;;;4916619;29;20406;-79
2021/05/16 10:28:55;;;;;;;1.67;1.50;;;17.10;99.90;;;;;;4912696;29;20435;-79
2021/05/16 10:31:49;;;;;;;0.70;0.70;;;17.00;99.90;;;;;;4928891;29;20422;-79
2021/05/16 10:34:29;;;;;;;2.03;1.02;;;16.90;99.90;;;;;;4914247;29;21082;-85
2021/05/16 10:36:56;;;;;;;1.02;0.90;;;16.60;99.90;;;;;;4926774;29;20939;-80
2021/05/16 10:39:43;;;;;;;1.30;1.00;;;16.40;99.90;;;;;;4884749;29;20404;-79
2021/05/16 10:42:19;;;;;;;4.30;1.00;;;16.20;99.90;;;;;;4939310;28;20417;-79
2021/05/16 10:45:02;;;;;;;0.67;0.67;;;16.40;99.90;;;;;;4919119;29;20435;-77
2021/05/16 10:47:48;;;;;;;1.00;0.90;;;17.20;99.90;;;;;;4914433;29;20433;-78
2021/05/16 10:50:49;;;;;;;0.88;0.88;;;17.50;99.90;;;;;;4944226;29;20398;-79
2021/05/16 10:53:41;;;;;;;0.95;0.88;;;17.40;99.90;;;;;;4912798;29;20493;-84
2021/05/16 10:56:11;;;;;;;1.00;0.80;;;17.20;99.90;;;;;;4886656;29;20402;-78
2021/05/16 10:58:37;;;;;;;0.80;0.80;;;17.40;99.90;;;;;;4925259;28;20449;-79
2021/05/16 11:01:08;;;;;;;0.80;0.80;;;18.10;99.90;;;;;;4942690;28;20425;-79
2021/05/16 11:03:50;;;;;;;1.00;1.00;;;18.80;99.90;;;;;;4892060;29;20410;-78
2021/05/16 11:06:42;;;;;;;1.02;0.98;;;19.20;99.90;;;;;;4912507;29;20426;-78
2021/05/16 11:09:13;;;;;;;0.90;0.90;;;19.70;99.90;;;;;;4908949;29;20406;-81
2021/05/16 11:11:43;;;;;;;1.65;0.93;;;20.20;99.90;;;;;;4900512;23;20434;-80
2021/05/16 11:14:45;;;;;;;0.90;0.90;;;20.10;99.90;;;;;;4894147;29;20821;-80
2021/05/16 11:17:26;;;;;;;1.27;1.10;;;19.80;99.90;;;;;;4890681;29;20414;-80
2021/05/16 11:19:57;;;;;;;0.98;0.98;;;19.80;99.90;;;;;;4900299;29;20399;-81
2021/05/16 11:22:23;;;;;;;0.85;0.85;;;20.70;99.90;;;;;;4921663;29;20912;-81
2021/05/16 11:24:51;;;;;;;1.50;1.00;;;21.20;99.90;;;;;;4906815;29;20419;-80
2021/05/16 11:27:22;;;;;;;0.90;0.90;;;21.00;99.90;;;;;;4944515;29;20392;-80
2021/05/16 11:29:54;;;;;;;0.70;0.70;;;20.90;99.90;;;;;;4942635;29;20391;-80
2021/05/16 11:32:27;;;;;;;0.60;0.60;;;20.70;99.90;;;;;;4920128;29;20387;-80
2021/05/16 11:35:15;;;;;;;2.00;0.80;;;20.50;99.90;;;;;;4919107;29;20427;-80
2021/05/16 11:37:45;;;;;;;1.33;1.00;;;20.30;99.90;;;;;;4926239;29;20453;-80
2021/05/16 11:40:22;;;;;;;0.80;0.80;;;19.60;99.90;;;;;;4920923;29;20419;-80
2021/05/16 11:43:13;;;;;;;1.70;0.90;;;19.30;99.90;;;;;;4915331;29;20471;-79
2021/05/16 11:45:40;;;;;;;0.80;0.80;;;19.50;99.90;;;;;;4902858;29;20415;-80
2021/05/16 11:48:07;;;;;;;0.75;0.75;;;19.80;99.90;;;;;;4933466;29;20389;-81
2021/05/16 11:50:42;;;;;;;0.70;0.70;;;19.90;99.90;;;;;;4933084;29;20408;-80
2021/05/16 11:53:12;;;;;;;0.85;0.85;;;19.80;99.90;;;;;;4923912;29;20427;-80
2021/05/16 11:55:38;;;;;;;1.00;0.90;;;19.90;99.90;;;;;;4907051;29;20412;-81
2021/05/16 11:58:14;;;;;;;0.82;0.82;;;19.70;99.90;;;;;;4943544;29;20424;-84
2021/05/16 12:00:50;;;;;;;1.25;1.15;;;19.50;99.90;;;;;;4873456;29;20994;-80
2021/05/16 12:04:08;;;;;;;0.93;0.93;;;19.70;99.90;;;;;;4912094;29;20486;-79
2021/05/16 12:07:30;;;;;;;0.85;0.85;;;19.80;99.90;;;;;;4902453;28;20410;-81
2021/05/16 12:10:30;;;;;;;0.93;0.90;;;20.20;99.90;;;;;;4918736;28;20421;-81
2021/05/16 12:14:22;;;;;;;1.13;0.88;;;20.70;99.90;;;;;;4904957;28;20426;-81
2021/05/16 12:17:56;;;;;;;0.90;0.90;;;21.40;99.90;;;;;;4886543;29;20442;-81
2021/05/16 12:21:10;;;;;;;0.88;0.88;;;21.40;99.90;;;;;;4919191;28;20391;-81
2021/05/16 12:23:36;;;;;;;0.95;0.77;;;21.90;99.90;;;;;;4894187;29;20911;-82
2021/05/16 12:26:08;;;;;;;0.70;0.63;;;22.10;99.90;;;;;;4912310;29;20403;-81
2021/05/16 12:29:24;;;;;;;0.60;0.60;;;22.40;99.90;;;;;;4917467;29;20378;-82
2021/05/16 12:32:12;;;;;;;0.90;0.70;;;22.90;99.90;;;;;;4926379;28;20428;-81
2021/05/16 12:37:48;;;;;;;0.82;0.82;;;24.00;95.50;;;;;;4913947;29;20419;-80
2021/05/16 12:40:46;;;;;;;2.53;0.85;;;24.00;91.80;;;;;;4946693;28;20471;-82
2021/05/16 12:43:23;;;;;;;0.68;0.68;;;23.90;82.60;;;;;;4921783;29;20458;-80
2021/05/16 12:46:12;;;;;;;0.70;0.70;;;23.90;83.70;;;;;;4903784;29;20409;-81
2021/05/16 12:48:52;;;;;;;1.20;0.93;;;24.20;83.60;;;;;;4924265;29;20399;-81
2021/05/16 12:51:28;;;;;;;0.68;0.68;;;24.40;81.20;;;;;;4911984;28;20390;-80
2021/05/16 12:54:20;;;;;;;0.70;0.70;;;24.50;72.00;;;;;;4875141;29;20408;-81
2021/05/16 12:57:02;;;;;;;0.80;0.80;;;24.80;76.60;;;;;;4910676;29;20388;-81
2021/05/16 12:59:37;;;;;;;1.20;0.98;;;25.00;78.20;;;;;;4939030;29;20400;-81
2021/05/16 13:02:38;;;;;;;0.70;0.70;;;25.40;69.40;;;;;;4897621;29;20407;-81
2021/05/16 13:05:17;;;;;;;0.80;0.80;;;25.10;66.40;;;;;;4917500;29;20415;-81